Kountze, TX (77625)

5:34 PM CDT on September 20, 2014 (GMT -0500)
Rocking Roll Ranch | Change Station
CLOSE
Current Station
Personal Weather Station
Location: Kountze, TX
Elevation: 86 ft
Nearby Weather Stations

Elev 86 ft 30.40 °N, 94.31 °W | Updated 4 minutes ago

Mostly Cloudy
Mostly Cloudy
86.4 °F
Feels Like 90 °F
N
1.6
Wind Variable Wind from East
Gusts 6.9 mph

Today
High -- | Low -- °F
--% Chance of Precip.
Yesterday
High -- | Low -- °F
Precip. -- in
7:04 AM 7:16 PM
Waning Crescent, 10% visible
Pressure 29.91 in
Visibility 10.0 miles
Clouds Mostly Cloudy 4600 ft
Mostly Cloudy 6000 ft
Heat Index 90 °F
Dew Point 68 °F
Humidity 54%
Rainfall 0.00 in
Snow Depth Not available.
UV 0.0 out of 12
Pollen 9.50 out of 12
Ozone Good
PM2.5 Good
Flu Activity Not available.
METAR KBMT 202215Z AUTO 05005KT 10SM BKN046 BKN060 30/22 A2991 RMK AO2 T02990216

More Conditions Fewer Conditions

Pressure 29.91 in
Visibility 10.0 miles
Clouds Mostly Cloudy 4600 ft
Mostly Cloudy 6000 ft
Heat Index 90 °F
Dew Point 68 °F
Humidity 54%
Rainfall 0.00 in
Snow Depth Not available.
UV 0.0 out of 12
Pollen 9.50 out of 12
Ozone Good
PM2.5 Good
Flu Activity Not available.
METAR KBMT 202215Z AUTO 05005KT 10SM BKN046 BKN060 30/22 A2991 RMK AO2 T02990216

More Conditions Fewer Conditions

10-Day Weather Forecast

Almanac

Astronomy

Sep. 20, 2014 Rise Set
Actual Time 7:04 AM CDT 7:16 PM CDT
Civil Twilight 6:40 AM CDT 7:40 PM CDT
Nautical Twilight 6:12 AM CDT 8:08 PM CDT
Astronomical Twilight 5:44 AM CDT 8:36 PM CDT
Moon 3:55 AM CDT 5:10 PM CDT
Length of Visible Light 12h 59m
Length of Day
12h 11m
Tomorrow will be 1m 49s shorter.
Waning Crescent, 10% of the Moon is Illuminated
Today
Waning Crescent
Sep 24
New
Oct 1
First Quarter
Oct 8
Full
Oct 15
Last Quarter

Today's Extremes

State Highs State Lows

Community

WunderPhotos

Upload Photos

1,754,967 photos uploaded!

WunderBlogs® & News

Nearby

Air Quality

  Air Quality AQ Index Pollutant
Yesterday Good
PM2.5
Yesterday Good
OZONE
Current Good
OZONE
Current Good
PM2.5
Saturday Good
OZONE
Saturday Good
PM10
Sunday Good
OZONE
Sunday Good
PM10
Monday Moderate
OZONE
Monday Good
PM10
Tuesday Moderate
OZONE
Tuesday Good
PM10

Snow Depth

Station Depth Elevation
No new snow has been reported.

Earthquake Activity

City Distance Mag. Time & Date
No recent earthquake activity has been reported nearby.
Minimum magnitude displayed is 2.5.

Coastal Water Temperatures

Place Temperature
No Stations Reporting

Nearby Weather Stations